Time;durP1;ratioP1;P1;durP2;ratioP2;P2;SDS_P1;SDS_P2;PMS_P1;PMS_P2;Temp;Humidity;BMP_temperature;BMP_pressure;BME280_temperature;BME280_humidity;BME280_pressure;Samples;Min_cycle;Max_cycle;Signal;HPM_P1;HPM_P2
2024/02/02 00:00:52;;;;;;;11.80;5.20;;;;;;;2.98;77.04;99626.19;107574;1254;97868;-75
2024/02/02 00:03:40;;;;;;;10.10;4.20;;;;;;;2.99;76.91;99631.76;107113;1253;109615;-77
2024/02/02 00:06:08;;;;;;;9.80;4.20;;;;;;;3.01;77.22;99634.67;105307;1258;96588;-75
2024/02/02 00:08:36;;;;;;;11.50;4.30;;;;;;;3.03;77.02;99632.52;105194;1255;108377;-76
2024/02/02 00:11:04;;;;;;;10.80;5.10;;;;;;;3.04;77.01;99632.66;105399;1257;96729;-76
2024/02/02 00:13:32;;;;;;;9.20;4.40;;;;;;;3.05;76.74;99634.01;105194;1256;97420;-76
2024/02/02 00:16:00;;;;;;;11.80;5.20;;;;;;;3.06;76.84;99629.77;106223;1255;109602;-75
2024/02/02 00:18:28;;;;;;;11.30;5.10;;;;;;;3.05;77.00;99631.58;105555;1253;96987;-76
2024/02/02 00:20:56;;;;;;;14.70;4.60;;;;;;;3.05;77.20;99629.83;105570;1257;107165;-76
2024/02/02 00:23:24;;;;;;;12.90;5.70;;;;;;;3.05;76.75;99629.45;105392;1253;97861;-76
2024/02/02 00:25:51;;;;;;;9.90;4.30;;;;;;;3.06;76.77;99625.75;106829;1252;97627;-76
2024/02/02 00:28:44;;;;;;;13.20;4.40;;;;;;;3.06;76.84;99628.19;106241;1252;110012;-75
2024/02/02 00:31:12;;;;;;;9.20;4.30;;;;;;;3.08;76.75;99626.91;105233;1256;97602;-75
2024/02/02 00:33:40;;;;;;;7.70;3.80;;;;;;;3.07;76.87;99624.30;106595;1252;107692;-76
2024/02/02 00:36:08;;;;;;;10.10;4.80;;;;;;;3.08;76.72;99634.42;105528;1266;97210;-76
2024/02/02 00:38:36;;;;;;;14.00;5.00;;;;;;;3.08;76.73;99641.45;106080;1254;97921;-76
2024/02/02 00:41:03;;;;;;;10.90;3.90;;;;;;;3.07;76.77;99641.64;105644;1253;108730;-76
2024/02/02 00:43:31;;;;;;;15.50;4.50;;;;;;;3.06;76.79;99653.77;105684;1256;97554;-75
2024/02/02 00:45:59;;;;;;;11.00;4.50;;;;;;;3.03;76.67;99658.98;105708;1254;107591;-75
2024/02/02 00:48:28;;;;;;;11.10;3.80;;;;;;;2.99;76.71;99661.73;107118;1253;96591;-75
2024/02/02 00:50:56;;;;;;;7.60;3.20;;;;;;;2.97;77.01;99653.38;106137;1254;96587;-76
2024/02/02 00:53:23;;;;;;;7.60;3.60;;;;;;;2.90;76.80;99655.33;106530;1252;109902;-75
2024/02/02 00:55:51;;;;;;;10.80;3.20;;;;;;;2.82;76.76;99656.11;105859;1256;96709;-75
2024/02/02 00:58:19;;;;;;;8.30;3.30;;;;;;;2.75;77.02;99659.65;107610;1252;107738;-76
2024/02/02 01:00:47;;;;;;;9.60;3.40;;;;;;;2.70;77.09;99652.82;108290;1252;94957;-76
2024/02/02 01:03:14;;;;;;;14.70;3.50;;;;;;;2.66;77.01;99647.68;107133;1253;97136;-76
2024/02/02 01:05:42;;;;;;;10.70;4.00;;;;;;;2.63;77.14;99649.35;105203;1257;109907;-76
2024/02/02 01:08:10;;;;;;;8.00;3.30;;;;;;;2.60;76.98;99646.45;106000;1257;96688;-75
2024/02/02 01:10:38;;;;;;;17.20;4.10;;;;;;;2.58;77.10;99650.90;105415;1253;108495;-75
2024/02/02 01:13:06;;;;;;;9.80;3.40;;;;;;;2.54;77.03;99658.36;108369;1252;94566;-74
2024/02/02 01:15:34;;;;;;;7.70;3.00;;;;;;;2.52;77.20;99658.06;108510;1251;94974;-74
2024/02/02 01:18:02;;;;;;;13.20;3.50;;;;;;;2.50;77.21;99657.40;108561;1252;110338;-74
2024/02/02 01:20:30;;;;;;;8.40;3.70;;;;;;;2.51;76.98;99650.76;107866;1253;96633;-77
2024/02/02 01:22:58;;;;;;;7.70;3.30;;;;;;;2.50;77.34;99654.64;107329;1252;107588;-76
2024/02/02 01:25:29;;;;;;;6.60;3.40;;;;;;;2.52;77.07;99655.46;106646;1254;96645;-76
2024/02/02 01:27:57;;;;;;;8.30;3.10;;;;;;;2.53;77.32;99653.84;105788;1253;97359;-76
2024/02/02 01:30:26;;;;;;;11.90;3.70;;;;;;;2.53;77.06;99654.90;105621;1252;109897;-76
2024/02/02 01:32:54;;;;;;;9.90;3.30;;;;;;;2.49;76.92;99658.35;105598;1253;96718;-76
2024/02/02 01:35:22;;;;;;;7.60;3.50;;;;;;;2.47;76.82;99661.38;107530;1257;107568;-75
2024/02/02 01:37:50;;;;;;;9.10;3.80;;;;;;;2.45;77.07;99658.81;105729;1256;96596;-75
2024/02/02 01:40:19;;;;;;;10.90;4.20;;;;;;;2.43;77.03;99654.66;105819;1257;97624;-75
2024/02/02 01:42:47;;;;;;;12.80;4.40;;;;;;;2.42;77.14;99657.16;105969;1255;109938;-75
2024/02/02 01:45:15;;;;;;;10.10;3.80;;;;;;;2.41;77.23;99655.08;105813;1252;97423;-76
2024/02/02 01:47:43;;;;;;;11.70;3.70;;;;;;;2.40;77.46;99657.04;105286;1255;107613;-75
2024/02/02 01:50:11;;;;;;;12.90;4.60;;;;;;;2.39;77.44;99657.42;106077;1253;96605;-76
2024/02/02 01:52:39;;;;;;;12.40;4.10;;;;;;;2.40;77.37;99657.92;105928;1255;97937;-76
2024/02/02 01:55:08;;;;;;;9.80;4.10;;;;;;;2.41;77.48;99654.39;106603;1255;110092;-74
2024/02/02 01:57:36;;;;;;;9.10;4.50;;;;;;;2.40;77.63;99656.17;106140;1252;96663;-74
2024/02/02 02:00:05;;;;;;;9.70;4.70;;;;;;;2.39;77.62;99656.54;105425;1252;107644;-75
2024/02/02 02:02:33;;;;;;;9.50;4.10;;;;;;;2.38;77.85;99660.42;106077;1255;97454;-76
2024/02/02 02:05:01;;;;;;;9.90;3.80;;;;;;;2.35;77.85;99659.79;107081;1252;96559;-75
2024/02/02 02:07:29;;;;;;;15.40;4.20;;;;;;;2.35;77.77;99661.55;105141;1256;108788;-75
2024/02/02 02:09:57;;;;;;;12.30;4.40;;;;;;;2.35;77.52;99660.16;105758;1255;96603;-74
2024/02/02 02:12:25;;;;;;;9.80;4.30;;;;;;;2.35;77.81;99659.27;105215;1257;106840;-75
2024/02/02 02:14:53;;;;;;;10.30;3.80;;;;;;;2.35;77.49;99657.17;105708;1253;97885;-75
2024/02/02 02:17:21;;;;;;;10.20;3.50;;;;;;;2.36;77.39;99660.47;105307;1256;96592;-76
2024/02/02 02:19:49;;;;;;;14.80;3.80;;;;;;;2.36;77.63;99657.14;105897;1256;109902;-76
2024/02/02 02:22:17;;;;;;;10.50;4.00;;;;;;;2.36;77.73;99656.25;106161;1252;96591;-74
2024/02/02 02:24:45;;;;;;;6.80;3.30;;;;;;;2.36;77.65;99655.23;105991;1253;106497;-75
2024/02/02 02:27:12;;;;;;;7.70;3.80;;;;;;;2.35;77.97;99656.64;106768;1255;96595;-76
2024/02/02 02:29:40;;;;;;;8.30;3.70;;;;;;;2.35;78.07;99660.16;105319;1257;96944;-76
2024/02/02 02:32:08;;;;;;;5.90;3.40;;;;;;;2.35;77.62;99657.17;107269;1255;110314;-75
2024/02/02 02:34:36;;;;;;;9.80;4.00;;;;;;;2.33;77.86;99657.73;105723;1253;96639;-75
2024/02/02 02:37:04;;;;;;;7.30;3.30;;;;;;;2.30;77.59;99653.98;105725;1253;107160;-75
2024/02/02 02:39:32;;;;;;;13.10;3.90;;;;;;;2.28;77.78;99658.44;106519;1253;97902;-75
2024/02/02 02:42:00;;;;;;;9.30;3.50;;;;;;;2.24;77.78;99662.94;105988;1252;96583;-76
2024/02/02 02:44:28;;;;;;;7.90;3.60;;;;;;;2.24;77.98;99663.98;107680;1253;109883;-75
2024/02/02 02:46:56;;;;;;;9.50;3.80;;;;;;;2.23;77.93;99666.27;106301;1252;96618;-76
2024/02/02 02:49:23;;;;;;;7.90;3.40;;;;;;;2.21;77.57;99667.38;105253;1256;108253;-75
2024/02/02 02:51:52;;;;;;;11.10;3.20;;;;;;;2.18;77.71;99664.31;107910;1255;96610;-76
2024/02/02 02:54:19;;;;;;;8.80;2.90;;;;;;;2.16;77.65;99667.16;106925;1252;96552;-76
2024/02/02 02:56:47;;;;;;;8.80;3.30;;;;;;;2.16;77.74;99663.69;105642;1253;108678;-76
2024/02/02 02:59:16;;;;;;;8.20;3.10;;;;;;;2.14;77.71;99670.73;107500;1252;96586;-74
2024/02/02 03:01:44;;;;;;;7.60;2.90;;;;;;;2.13;77.81;99678.29;108329;1253;107657;-75
2024/02/02 03:04:12;;;;;;;8.10;3.00;;;;;;;2.12;77.70;99675.68;107170;1253;96594;-75
2024/02/02 03:06:40;;;;;;;11.20;3.10;;;;;;;2.12;77.37;99673.23;106940;1252;96584;-76
2024/02/02 03:09:11;;;;;;;10.90;3.90;;;;;;;2.09;77.79;99675.21;106354;1255;109978;-76
2024/02/02 03:11:40;;;;;;;9.10;2.70;;;;;;;2.06;77.91;99678.47;105427;1258;96601;-74
2024/02/02 03:14:08;;;;;;;11.60;3.80;;;;;;;2.05;77.74;99679.38;105836;1252;107825;-75
2024/02/02 03:16:36;;;;;;;7.50;3.60;;;;;;;2.05;77.64;99677.27;105390;1257;96585;-76
2024/02/02 03:19:05;;;;;;;15.30;3.10;;;;;;;2.03;77.60;99679.78;105804;1252;96606;-77
2024/02/02 03:21:34;;;;;;;8.20;3.60;;;;;;;2.00;77.72;99681.25;105538;1253;109835;-75
2024/02/02 03:24:04;;;;;;;10.10;3.10;;;;;;;1.97;77.76;99683.98;106162;1259;97914;-76
2024/02/02 03:26:31;;;;;;;10.00;2.90;;;;;;;1.94;77.44;99683.71;105440;1257;107627;-75
2024/02/02 03:29:00;;;;;;;8.50;3.10;;;;;;;1.91;77.63;99681.51;105695;1252;96586;-76
2024/02/02 03:31:28;;;;;;;9.20;3.20;;;;;;;1.88;77.61;99682.98;106697;1252;96543;-76
2024/02/02 03:33:57;;;;;;;6.90;2.60;;;;;;;1.87;77.66;99691.05;106244;1252;109648;-75
2024/02/02 03:36:25;;;;;;;11.00;3.20;;;;;;;1.87;77.75;99695.95;105748;1255;96551;-76
2024/02/02 03:38:53;;;;;;;9.60;2.90;;;;;;;1.86;78.04;99694.05;106643;1253;107433;-75
2024/02/02 03:41:21;;;;;;;5.80;2.10;;;;;;;1.85;77.93;99693.05;106447;1255;96511;-77
2024/02/02 03:43:51;;;;;;;7.50;3.20;;;;;;;1.85;77.76;99697.05;105390;1256;96580;-76
2024/02/02 03:46:19;;;;;;;10.50;3.10;;;;;;;1.88;77.91;99695.76;105659;1253;109886;-76
2024/02/02 03:48:48;;;;;;;14.60;3.70;;;;;;;1.91;78.34;99696.89;105689;1257;97528;-76
2024/02/02 03:51:16;;;;;;;6.70;2.70;;;;;;;1.91;77.90;99701.78;105952;1253;108240;-76
2024/02/02 03:53:44;;;;;;;8.40;3.60;;;;;;;1.94;78.52;99704.00;105550;1255;96598;-76
2024/02/02 03:56:11;;;;;;;10.70;3.00;;;;;;;1.94;77.87;99700.66;105532;1256;97895;-76
2024/02/02 03:58:39;;;;;;;6.00;2.80;;;;;;;1.96;78.15;99703.23;105421;1257;109658;-77
2024/02/02 04:01:07;;;;;;;10.80;3.40;;;;;;;1.99;78.31;99705.08;106377;1252;97566;-75
2024/02/02 04:03:35;;;;;;;12.40;3.30;;;;;;;2.00;78.21;99707.16;106617;1252;107797;-75
2024/02/02 04:06:03;;;;;;;14.00;3.30;;;;;;;2.02;78.04;99710.25;106327;1255;97529;-76
2024/02/02 04:08:31;;;;;;;10.70;3.50;;;;;;;2.03;78.27;99709.16;105763;1253;96585;-76
2024/02/02 04:10:59;;;;;;;11.40;3.80;;;;;;;2.02;78.11;99712.52;105172;1264;109796;-76
2024/02/02 04:13:27;;;;;;;8.80;3.20;;;;;;;2.01;78.31;99710.63;105870;1258;97290;-75
2024/02/02 04:15:54;;;;;;;8.90;3.30;;;;;;;2.00;78.25;99712.92;105960;1253;107174;-75
2024/02/02 04:18:22;;;;;;;5.80;3.00;;;;;;;2.00;77.96;99712.92;105376;1255;96595;-76
2024/02/02 04:20:53;;;;;;;9.20;3.80;;;;;;;1.99;78.63;99716.80;105883;1255;96687;-75
2024/02/02 04:23:21;;;;;;;15.20;4.00;;;;;;;1.96;78.31;99713.90;105744;1256;109029;-77
2024/02/02 04:25:49;;;;;;;8.20;3.80;;;;;;;1.96;78.42;99716.17;105577;1252;97411;-76
2024/02/02 04:28:16;;;;;;;8.60;4.40;;;;;;;1.95;78.17;99709.04;105537;1256;107627;-76
2024/02/02 04:30:44;;;;;;;13.70;4.80;;;;;;;1.95;78.33;99703.46;105593;1256;96690;-76
2024/02/02 04:33:13;;;;;;;18.70;6.60;;;;;;;1.92;78.06;99706.48;105809;1255;97425;-76
2024/02/02 04:35:41;;;;;;;13.90;5.50;;;;;;;1.90;78.53;99715.80;106263;1252;110063;-74
2024/02/02 04:38:09;;;;;;;10.90;5.80;;;;;;;1.89;78.26;99721.09;105640;1256;97421;-75
2024/02/02 04:40:37;;;;;;;11.40;5.80;;;;;;;1.87;78.06;99723.40;106679;1255;107499;-75
2024/02/02 04:43:05;;;;;;;12.40;5.10;;;;;;;1.87;78.44;99720.25;108327;1252;94503;-75
2024/02/02 04:45:33;;;;;;;8.20;4.10;;;;;;;1.87;78.29;99723.58;105655;1254;96622;-76
2024/02/02 04:48:01;;;;;;;10.90;4.80;;;;;;;1.90;78.49;99721.41;105729;1256;110410;-76
2024/02/02 04:50:30;;;;;;;18.00;6.80;;;;;;;1.90;78.16;99723.52;105628;1253;97816;-75
2024/02/02 04:52:58;;;;;;;29.50;9.70;;;;;;;1.91;78.53;99731.02;105795;1257;107786;-76
2024/02/02 04:55:26;;;;;;;19.50;6.90;;;;;;;1.90;78.18;99733.98;105915;1253;96595;-76
2024/02/02 04:57:53;;;;;;;16.30;6.60;;;;;;;1.89;78.42;99731.58;105625;1257;96658;-76
2024/02/02 05:00:21;;;;;;;12.90;5.60;;;;;;;1.91;78.60;99734.31;105832;1253;109955;-76
2024/02/02 05:02:49;;;;;;;18.50;4.70;;;;;;;1.91;78.67;99735.90;108129;1252;96505;-74
2024/02/02 05:05:17;;;;;;;16.30;5.30;;;;;;;1.91;78.41;99739.39;105277;1257;107615;-74
2024/02/02 05:07:45;;;;;;;11.30;4.00;;;;;;;1.93;78.70;99740.23;105971;1252;97546;-74
2024/02/02 05:10:13;;;;;;;8.80;4.00;;;;;;;1.94;78.34;99742.13;105461;1256;96525;-74
2024/02/02 05:12:41;;;;;;;10.80;4.20;;;;;;;1.94;78.60;99742.48;105637;1252;109757;-73
2024/02/02 05:15:09;;;;;;;10.60;3.70;;;;;;;1.97;78.54;99743.27;105506;1256;96583;-74
2024/02/02 05:17:37;;;;;;;10.40;3.70;;;;;;;2.00;78.49;99744.60;105675;1253;107674;-75
2024/02/02 05:20:07;;;;;;;12.00;4.00;;;;;;;1.99;78.35;99744.43;106614;1257;96671;-76
2024/02/02 05:22:35;;;;;;;17.70;4.90;;;;;;;2.00;78.48;99752.64;108493;1252;94918;-76
2024/02/02 05:25:03;;;;;;;10.10;3.70;;;;;;;2.00;78.28;99755.09;107943;1253;109939;-75
2024/02/02 05:27:31;;;;;;;9.40;3.30;;;;;;;2.01;78.40;99758.22;106151;1252;96796;-75
2024/02/02 05:30:00;;;;;;;11.20;3.80;;;;;;;2.02;78.33;99755.40;107568;1252;107629;-76
2024/02/02 05:32:28;;;;;;;10.40;3.40;;;;;;;2.00;78.66;99753.88;105607;1258;96594;-76
2024/02/02 05:34:56;;;;;;;9.90;2.90;;;;;;;2.00;78.20;99751.94;106332;1267;96648;-75
2024/02/02 05:37:24;;;;;;;17.50;8.00;;;;;;;1.99;78.51;99757.22;105783;1255;108591;-76
2024/02/02 05:39:52;;;;;;;12.70;5.40;;;;;;;1.99;78.18;99758.98;105673;1252;96596;-77
2024/02/02 05:42:20;;;;;;;10.30;4.80;;;;;;;1.96;78.33;99759.38;106388;1253;107204;-76
2024/02/02 05:44:48;;;;;;;14.90;6.20;;;;;;;1.95;78.25;99761.52;108398;1252;94504;-75
2024/02/02 05:47:15;;;;;;;17.30;5.50;;;;;;;1.91;78.21;99760.04;105117;1252;96578;-77
2024/02/02 05:49:43;;;;;;;16.00;5.20;;;;;;;1.86;77.98;99765.23;105732;1252;109333;-77
2024/02/02 05:52:11;;;;;;;16.60;6.40;;;;;;;1.83;78.13;99761.29;105512;1256;96565;-76
2024/02/02 05:54:39;;;;;;;11.90;4.70;;;;;;;1.78;77.99;99766.32;105802;1255;107711;-76
2024/02/02 05:57:07;;;;;;;15.10;5.10;;;;;;;1.74;78.04;99767.13;107491;1255;96629;-78
2024/02/02 05:59:35;;;;;;;16.20;5.70;;;;;;;1.72;77.98;99769.08;105758;1256;96554;-77
2024/02/02 06:02:03;;;;;;;17.30;5.00;;;;;;;1.71;78.04;99777.68;106763;1252;109964;-78
2024/02/02 06:04:30;;;;;;;12.60;4.60;;;;;;;1.70;77.91;99780.33;106270;1253;96569;-81
2024/02/02 06:06:58;;;;;;;20.00;5.90;;;;;;;1.69;78.09;99774.59;106751;1252;107535;-78
2024/02/02 06:09:26;;;;;;;24.30;7.40;;;;;;;1.68;78.03;99776.52;105776;1256;96492;-78
2024/02/02 06:11:54;;;;;;;17.50;6.20;;;;;;;1.66;77.86;99780.60;108036;1252;94668;-77
2024/02/02 06:14:25;;;;;;;12.50;5.10;;;;;;;1.64;77.93;99786.74;105757;1253;110020;-77
2024/02/02 06:16:53;;;;;;;12.10;4.30;;;;;;;1.61;77.75;99788.94;106088;1256;96913;-78
2024/02/02 06:19:21;;;;;;;14.50;4.50;;;;;;;1.58;77.79;99795.84;105879;1253;107607;-77
2024/02/02 06:21:49;;;;;;;16.20;4.10;;;;;;;1.59;77.89;99798.78;105830;1252;96707;-77
2024/02/02 06:24:17;;;;;;;10.90;3.70;;;;;;;1.58;77.91;99798.27;105700;1255;96635;-77
2024/02/02 06:26:44;;;;;;;6.70;2.80;;;;;;;1.60;77.98;99797.36;105952;1253;109930;-76
2024/02/02 06:29:12;;;;;;;8.80;3.10;;;;;;;1.60;77.65;99795.96;105620;1255;96617;-77
2024/02/02 06:31:40;;;;;;;8.90;3.20;;;;;;;1.61;77.75;99802.59;106143;1255;107405;-77
2024/02/02 06:34:08;;;;;;;7.60;2.60;;;;;;;1.60;77.77;99806.11;105975;1253;97091;-78
2024/02/02 06:36:36;;;;;;;7.80;2.40;;;;;;;1.59;77.75;99812.25;106495;1252;96578;-77
2024/02/02 06:39:04;;;;;;;10.50;3.20;;;;;;;1.59;77.96;99819.75;105778;1256;109585;-78
2024/02/02 06:41:32;;;;;;;11.60;3.60;;;;;;;1.59;77.76;99819.41;105546;1253;98004;-78
2024/02/02 06:44:00;;;;;;;9.60;3.20;;;;;;;1.61;77.79;99823.73;105683;1256;107538;-78
2024/02/02 06:47:04;;;;;;;8.80;3.20;;;;;;;1.64;78.12;99824.19;106379;1256;96587;-81
2024/02/02 06:49:55;;;;;;;9.30;3.00;;;;;;;1.68;77.67;99825.33;107131;1255;96524;-76
2024/02/02 06:52:23;;;;;;;8.10;4.40;;;;;;;1.70;77.98;99829.45;107025;1255;110068;-77
2024/02/02 06:54:51;;;;;;;15.40;4.70;;;;;;;1.72;77.68;99831.17;105921;1253;97544;-77
2024/02/02 06:57:19;;;;;;;12.00;4.20;;;;;;;1.74;77.58;99831.29;106615;1255;107734;-77
2024/02/02 06:59:50;;;;;;;11.90;5.20;;;;;;;1.74;77.94;99828.33;108399;1252;96515;-77
2024/02/02 07:02:20;;;;;;;10.60;4.10;;;;;;;1.76;77.92;99826.35;106035;1255;96605;-76
2024/02/02 07:04:48;;;;;;;14.20;4.50;;;;;;;1.81;77.86;99829.05;106271;1255;109351;-78
2024/02/02 07:07:17;;;;;;;10.80;4.70;;;;;;;1.83;77.76;99825.15;107580;1252;96505;-77
2024/02/02 07:09:56;;;;;;;11.10;5.50;;;;;;;1.86;77.44;99828.91;106661;1253;107690;-77
2024/02/02 07:13:00;;;;;;;10.60;4.00;;;;;;;1.90;77.73;99836.16;105348;1255;96581;-85
2024/02/02 07:15:39;;;;;;;12.30;4.40;;;;;;;1.92;77.70;99835.74;106228;1255;96602;-85
2024/02/02 07:18:32;;;;;;;10.60;4.60;;;;;;;1.92;77.89;99838.01;108771;1252;109843;-86
2024/02/02 07:21:04;;;;;;;11.60;3.60;;;;;;;1.93;77.86;99838.87;108713;1252;95186;-82
2024/02/02 07:23:34;;;;;;;12.20;4.70;;;;;;;1.97;77.77;99843.52;108772;1251;107344;-83
2024/02/02 07:26:06;;;;;;;14.30;5.20;;;;;;;1.98;78.01;99845.41;108788;1253;94779;-82
2024/02/02 07:28:38;;;;;;;11.10;5.00;;;;;;;2.00;77.91;99847.13;108821;1252;94300;-84
2024/02/02 07:31:13;;;;;;;20.40;5.90;;;;;;;2.03;77.81;99852.12;108714;1252;109860;-84
2024/02/02 07:33:43;;;;;;;11.90;4.70;;;;;;;2.06;78.10;99855.35;108734;1252;94836;-85
2024/02/02 07:36:29;;;;;;;15.70;4.90;;;;;;;2.07;77.77;99855.83;108775;1252;107290;-76
2024/02/02 07:38:58;;;;;;;14.00;5.50;;;;;;;2.08;77.96;99858.44;108692;1255;94566;-80
2024/02/02 07:41:27;;;;;;;16.00;5.30;;;;;;;2.09;78.10;99858.25;108720;1252;94871;-81
2024/02/02 07:44:00;;;;;;;11.00;4.90;;;;;;;2.14;78.15;99863.90;108788;1252;109955;-79
2024/02/02 07:46:28;;;;;;;10.50;4.40;;;;;;;2.18;78.02;99864.34;108693;1252;95202;-81
2024/02/02 07:48:56;;;;;;;13.70;5.00;;;;;;;2.19;78.11;99865.52;108721;1253;107798;-82
2024/02/02 07:51:24;;;;;;;13.10;5.10;;;;;;;2.23;78.32;99866.84;108694;1253;94441;-83
2024/02/02 07:53:53;;;;;;;11.30;4.70;;;;;;;2.26;78.05;99866.02;108659;1252;95265;-84
2024/02/02 07:56:25;;;;;;;15.70;5.90;;;;;;;2.28;78.13;99868.98;108747;1252;109967;-81
2024/02/02 07:58:55;;;;;;;11.00;5.30;;;;;;;2.30;78.22;99865.08;108824;1252;94411;-84
2024/02/02 08:01:23;;;;;;;18.00;5.90;;;;;;;2.35;77.89;99858.48;108813;1252;107138;-82
2024/02/02 08:03:51;;;;;;;17.60;6.00;;;;;;;2.40;78.18;99859.58;108701;1253;94571;-84
2024/02/02 08:06:19;;;;;;;17.00;4.90;;;;;;;2.44;78.15;99860.70;108709;1252;95341;-84
2024/02/02 08:08:48;;;;;;;16.60;5.40;;;;;;;2.46;78.07;99855.89;108892;1253;110664;-79
2024/02/02 08:11:18;;;;;;;14.50;5.80;;;;;;;2.50;78.32;99859.45;108844;1253;95077;-79
2024/02/02 08:13:46;;;;;;;12.00;5.10;;;;;;;2.56;78.23;99866.50;108762;1252;106357;-81
2024/02/02 08:16:15;;;;;;;13.70;4.50;;;;;;;2.60;78.45;99859.57;108777;1252;94252;-80
2024/02/02 08:18:43;;;;;;;18.40;5.70;;;;;;;2.64;78.31;99858.73;108818;1251;94611;-76
2024/02/02 08:21:11;;;;;;;16.60;6.00;;;;;;;2.66;78.15;99853.44;108797;1252;109312;-76
2024/02/02 08:23:40;;;;;;;13.00;5.90;;;;;;;2.67;77.94;99857.63;108684;1253;95553;-76
2024/02/02 08:26:08;;;;;;;13.20;4.90;;;;;;;2.65;78.00;99858.72;108759;1252;107325;-76
2024/02/02 08:28:38;;;;;;;12.20;4.30;;;;;;;2.61;77.83;99856.55;108743;1251;94473;-76
2024/02/02 08:31:18;;;;;;;11.50;5.30;;;;;;;2.58;77.92;99857.34;108794;1252;94539;-76
2024/02/02 08:33:46;;;;;;;14.70;4.10;;;;;;;2.58;77.97;99859.96;108735;1252;109138;-76
2024/02/02 08:36:14;;;;;;;13.60;4.70;;;;;;;2.63;78.14;99860.88;108630;1253;95294;-76
2024/02/02 08:38:42;;;;;;;10.40;4.50;;;;;;;2.73;77.94;99862.52;108720;1253;107613;-76
2024/02/02 08:41:10;;;;;;;11.90;4.10;;;;;;;2.80;77.69;99863.23;108602;1253;94480;-76
2024/02/02 08:43:39;;;;;;;15.10;4.60;;;;;;;2.83;77.99;99860.67;108766;1253;94615;-76
2024/02/02 08:46:09;;;;;;;11.00;4.70;;;;;;;2.89;77.90;99869.27;108502;1253;110092;-76
2024/02/02 08:48:39;;;;;;;14.80;4.80;;;;;;;2.95;77.86;99875.05;108711;1253;94562;-76
2024/02/02 08:51:45;;;;;;;18.00;5.80;;;;;;;3.01;77.84;99874.19;108710;1252;107487;-76
2024/02/02 08:54:16;;;;;;;14.20;4.30;;;;;;;3.09;77.60;99876.58;108787;1252;94420;-76
2024/02/02 08:57:08;;;;;;;12.50;5.00;;;;;;;3.15;77.76;99873.80;108804;1251;94616;-76
2024/02/02 08:59:42;;;;;;;13.10;3.90;;;;;;;3.23;77.47;99872.16;108900;1253;110270;-76
2024/02/02 09:02:33;;;;;;;7.10;3.90;;;;;;;3.27;77.58;99878.73;108810;1252;94372;-76
2024/02/02 09:05:07;;;;;;;9.10;3.50;;;;;;;3.29;77.37;99889.15;108668;1252;107911;-76
2024/02/02 09:07:35;;;;;;;10.20;4.40;;;;;;;3.32;77.22;99891.88;108818;1252;94250;-76
2024/02/02 09:10:43;;;;;;;13.30;4.60;;;;;;;3.34;77.52;99894.99;108861;1251;94231;-76
2024/02/02 09:13:17;;;;;;;9.10;3.10;;;;;;;3.36;76.89;99899.64;108795;1252;109638;-76
2024/02/02 09:15:46;;;;;;;14.30;3.90;;;;;;;3.35;76.56;99903.37;108767;1253;95988;-76
2024/02/02 09:18:30;;;;;;;7.10;2.40;;;;;;;3.35;76.37;99903.91;108783;1252;107168;-76
2024/02/02 09:20:58;;;;;;;12.40;3.50;;;;;;;3.34;76.03;99899.52;108819;1252;94273;-76
2024/02/02 09:23:28;;;;;;;14.00;3.80;;;;;;;3.36;75.82;99898.27;108779;1255;94830;-76
2024/02/02 09:25:56;;;;;;;8.40;3.10;;;;;;;3.38;75.48;99902.04;108820;1252;111700;-76
2024/02/02 09:28:24;;;;;;;10.30;3.90;;;;;;;3.39;75.56;99902.04;108850;1253;95227;-76
2024/02/02 09:30:56;;;;;;;21.10;4.30;;;;;;;3.42;75.20;99901.23;108812;1253;107121;-76
2024/02/02 09:33:30;;;;;;;12.10;4.70;;;;;;;3.47;75.03;99902.69;108803;1253;94332;-76
2024/02/02 09:36:01;;;;;;;9.50;3.60;;;;;;;3.50;74.85;99905.73;108908;1251;94331;-75
2024/02/02 09:38:29;;;;;;;8.20;3.40;;;;;;;3.50;74.55;99904.14;108911;1253;110007;-75
2024/02/02 09:41:00;;;;;;;10.20;3.10;;;;;;;3.56;74.67;99904.48;108843;1252;95869;-75
2024/02/02 09:43:48;;;;;;;16.20;3.80;;;;;;;3.61;74.56;99901.88;108834;1252;106901;-75
2024/02/02 09:46:32;;;;;;;11.30;3.20;;;;;;;3.64;74.36;99897.41;108764;1252;94236;-75
2024/02/02 09:49:16;;;;;;;8.30;2.80;;;;;;;3.68;74.20;99891.32;108801;1252;94469;-75
2024/02/02 09:51:44;;;;;;;;;;;;;;;3.72;74.04;99891.73;108789;1255;109954;-75
2024/02/02 09:54:26;;;;;;;8.40;2.90;;;;;;;3.75;74.20;99897.61;108779;1253;96124;-76
2024/02/02 09:57:27;;;;;;;12.40;3.30;;;;;;;3.75;73.56;99893.41;108746;1252;107650;-76
2024/02/02 10:00:26;;;;;;;7.30;2.60;;;;;;;3.69;72.71;99897.77;108716;1252;94618;-76
2024/02/02 10:03:03;;;;;;;6.50;2.80;;;;;;;3.66;72.09;99890.67;108597;1253;94324;-76
2024/02/02 10:05:50;;;;;;;10.30;3.20;;;;;;;3.68;72.32;99886.05;108809;1253;110584;-76
2024/02/02 10:08:27;;;;;;;8.30;3.00;;;;;;;3.71;72.17;99880.88;108766;1253;95176;-76
2024/02/02 10:11:13;;;;;;;5.80;2.90;;;;;;;3.70;71.65;99884.58;108822;1253;105868;-76
2024/02/02 10:14:02;;;;;;;9.80;3.20;;;;;;;3.66;71.11;99882.26;108837;1253;94491;-78
2024/02/02 10:17:06;;;;;;;11.50;3.20;;;;;;;3.66;70.80;99882.09;108858;1252;94328;-76
2024/02/02 10:19:56;;;;;;;10.90;3.50;;;;;;;3.67;70.68;99882.93;108852;1253;108913;-76
2024/02/02 10:22:31;;;;;;;12.20;3.90;;;;;;;3.67;70.29;99885.75;108793;1253;95706;-76
2024/02/02 10:25:30;;;;;;;10.50;3.50;;;;;;;3.68;69.87;99888.00;108771;1253;107713;-76
2024/02/02 10:28:12;;;;;;;9.50;3.60;;;;;;;3.67;68.93;99889.62;108829;1252;94288;-76
2024/02/02 10:30:52;;;;;;;8.90;4.90;;;;;;;3.68;68.72;99888.69;108657;1252;94631;-76
2024/02/02 10:33:27;;;;;;;54.50;30.30;;;;;;;3.66;68.10;99879.13;108820;1253;110000;-76
2024/02/02 10:36:19;;;;;;;10.90;5.50;;;;;;;3.67;68.55;99878.70;108816;1255;95744;-76
2024/02/02 10:38:49;;;;;;;8.40;4.50;;;;;;;3.70;67.89;99881.80;108813;1252;106690;-76
2024/02/02 10:41:26;;;;;;;7.80;4.10;;;;;;;3.68;67.57;99882.38;108731;1255;94596;-76
2024/02/02 10:44:16;;;;;;;14.60;6.70;;;;;;;3.68;67.46;99875.36;108878;1252;94582;-76
2024/02/02 10:47:02;;;;;;;13.00;5.80;;;;;;;3.70;68.15;99873.52;108839;1252;109913;-76
2024/02/02 10:49:53;;;;;;;23.70;9.20;;;;;;;3.72;67.96;99871.19;108757;1253;94623;-76
2024/02/02 10:52:30;;;;;;;20.50;6.50;;;;;;;3.71;67.69;99875.98;108606;1252;109144;-76
2024/02/02 10:55:34;;;;;;;12.30;5.40;;;;;;;3.69;67.74;99872.02;108790;1254;94509;-76
2024/02/02 10:58:07;;;;;;;7.90;4.60;;;;;;;3.65;67.44;99876.00;108806;1253;94250;-76
2024/02/02 11:03:36;;;;;;;;;;;;;;;3.69;67.67;99879.20;102392;1293;635893;-78
2024/02/02 11:06:22;;;;;;;54.50;19.90;;;;;;;3.76;67.50;99880.90;104686;1272;94353;-76
2024/02/02 11:09:09;;;;;;;21.70;8.40;;;;;;;3.87;67.74;99878.45;104501;1272;95260;-76
2024/02/02 11:11:41;;;;;;;44.30;15.40;;;;;;;3.95;67.25;99874.35;105041;1267;107249;-75
2024/02/02 11:14:26;;;;;;;38.50;15.90;;;;;;;3.96;67.26;99867.80;104415;1272;95480;-76
2024/02/02 11:17:04;;;;;;;47.20;17.00;;;;;;;3.98;67.16;99864.92;105116;1264;106111;-76
2024/02/02 11:20:03;;;;;;;23.30;8.40;;;;;;;3.97;67.05;99858.65;105345;1263;94395;-76
2024/02/02 11:22:44;;;;;;;18.90;7.40;;;;;;;3.93;66.68;99865.80;105394;1262;94973;-76
2024/02/02 11:25:32;;;;;;;27.80;8.50;;;;;;;3.86;66.11;99857.09;105178;1262;107255;-75
2024/02/02 11:28:00;;;;;;;32.60;10.60;;;;;;;3.79;65.91;99855.20;105592;1256;96147;-76
2024/02/02 11:31:02;;;;;;;40.20;16.00;;;;;;;3.78;65.59;99849.80;105481;1256;108703;-75
2024/02/02 11:33:52;;;;;;;35.60;13.60;;;;;;;3.81;65.54;99845.14;105435;1259;95268;-75
2024/02/02 11:36:42;;;;;;;16.60;5.00;;;;;;;3.84;65.83;99842.91;105711;1259;95240;-76
2024/02/02 11:39:34;;;;;;;48.50;19.10;;;;;;;3.84;65.47;99844.85;105452;1256;108539;-76
2024/02/02 11:42:03;;;;;;;28.60;10.70;;;;;;;3.86;65.10;99833.88;105604;1256;95498;-76
2024/02/02 11:44:34;;;;;;;27.50;11.00;;;;;;;3.88;65.27;99833.48;105377;1254;107193;-76
2024/02/02 11:47:05;;;;;;;31.00;11.80;;;;;;;3.91;65.11;99830.60;105475;1260;95230;-76
2024/02/02 11:49:37;;;;;;;24.40;8.40;;;;;;;3.86;64.53;99827.42;105673;1257;95326;-76